DAL4178 KFLL-KATL
Flight info
| Callsign | DAL4178 |
|---|---|
| Flight time | 1h 23m |
| Altitude | 36000 |
| Route | FRSBE2 STYMY Q77 MJAMS/N0448F350 Q77 SHRKS/N0448F360 LAIRI LARZZ JJEDI4 |
| Aircraft | B738/M-SDE2E3FGHIRWXY/LB1 |
Departure
| Time | 2026-05-04 00:48 |
|---|---|
| Airport | Fort Lauderdale Hollywood International Airport (KFLL) |
Arrival
| Time | 2026-05-04 02:11 |
|---|---|
| Airport | Hartsfield Jackson Atlanta International Airport (KATL) |
| Time | Latitude | Longitude | Altitude | Speed | Heading |
|---|---|---|---|---|---|
| 2026-05-04 00:01 | 26.07338 | -80.14423 | 15 ft | 0 kts | 102° |
| 2026-05-04 00:11 | 26.07339 | -80.14427 | 15 ft | 3 kts | 101° |
| 2026-05-04 00:11 | 26.07342 | -80.14456 | 15 ft | 4 kts | 84° |
| 2026-05-04 00:12 | 26.07335 | -80.14483 | 16 ft | 4 kts | 45° |
| 2026-05-04 00:12 | 26.07320 | -80.14492 | 15 ft | 1 kts | 360° |
| 2026-05-04 00:12 | 26.07317 | -80.14492 | 15 ft | 0 kts | 360° |
| 2026-05-04 00:15 | 26.07345 | -80.14492 | 15 ft | 9 kts | 360° |
| 2026-05-04 00:15 | 26.07421 | -80.14492 | 15 ft | 0 kts | 360° |
| 2026-05-04 00:16 | 26.07424 | -80.14492 | 15 ft | 1 kts | 0° |
| 2026-05-04 00:16 | 26.07434 | -80.14492 | 15 ft | 4 kts | 2° |
| 2026-05-04 00:16 | 26.07482 | -80.14515 | 16 ft | 13 kts | 303° |
| 2026-05-04 00:16 | 26.07489 | -80.14650 | 15 ft | 22 kts | 270° |
| 2026-05-04 00:17 | 26.07488 | -80.14819 | 15 ft | 22 kts | 271° |
| 2026-05-04 00:17 | 26.07488 | -80.14987 | 15 ft | 21 kts | 270° |
| 2026-05-04 00:17 | 26.07490 | -80.15148 | 15 ft | 20 kts | 270° |
| 2026-05-04 00:17 | 26.07490 | -80.15304 | 15 ft | 20 kts | 271° |
| 2026-05-04 00:18 | 26.07491 | -80.15455 | 15 ft | 19 kts | 270° |
| 2026-05-04 00:18 | 26.07492 | -80.15599 | 15 ft | 17 kts | 269° |
| 2026-05-04 00:18 | 26.07491 | -80.15652 | 15 ft | 0 kts | 271° |
| 2026-05-04 00:23 | 26.07492 | -80.15653 | 15 ft | 1 kts | 272° |
| 2026-05-04 00:23 | 26.07493 | -80.15698 | 15 ft | 9 kts | 271° |
| 2026-05-04 00:23 | 26.07493 | -80.15716 | 15 ft | 0 kts | 270° |
| 2026-05-04 00:25 | 26.07493 | -80.15723 | 15 ft | 5 kts | 270° |
| 2026-05-04 00:25 | 26.07493 | -80.15779 | 15 ft | 8 kts | 270° |
| 2026-05-04 00:25 | 26.07493 | -80.15803 | 15 ft | 0 kts | 271° |
| 2026-05-04 00:27 | 26.07494 | -80.15816 | 15 ft | 6 kts | 270° |
| 2026-05-04 00:27 | 26.07494 | -80.15887 | 15 ft | 12 kts | 270° |
| 2026-05-04 00:27 | 26.07494 | -80.15974 | 15 ft | 9 kts | 270° |
| 2026-05-04 00:28 | 26.07494 | -80.15988 | 15 ft | 0 kts | 270° |
| 2026-05-04 00:30 | 26.07494 | -80.15989 | 15 ft | 0 kts | 271° |
| 2026-05-04 00:30 | 26.07494 | -80.16002 | 15 ft | 4 kts | 270° |
| 2026-05-04 00:30 | 26.07495 | -80.16054 | 15 ft | 10 kts | 270° |
| 2026-05-04 00:30 | 26.07495 | -80.16102 | 15 ft | 0 kts | 270° |
| 2026-05-04 00:31 | 26.07495 | -80.16107 | 15 ft | 2 kts | 270° |
| 2026-05-04 00:31 | 26.07495 | -80.16119 | 15 ft | 0 kts | 270° |
| 2026-05-04 00:31 | 26.07495 | -80.16120 | 15 ft | 1 kts | 270° |
| 2026-05-04 00:32 | 26.07495 | -80.16147 | 15 ft | 6 kts | 270° |
| 2026-05-04 00:32 | 26.07495 | -80.16156 | 15 ft | 0 kts | 271° |
| 2026-05-04 00:32 | 26.07495 | -80.16163 | 15 ft | 3 kts | 270° |
| 2026-05-04 00:33 | 26.07495 | -80.16177 | 15 ft | 0 kts | 270° |
| 2026-05-04 00:35 | 26.07496 | -80.16183 | 15 ft | 0 kts | 270° |
| 2026-05-04 00:35 | 26.07496 | -80.16196 | 15 ft | 5 kts | 271° |
| 2026-05-04 00:36 | 26.07496 | -80.16265 | 15 ft | 11 kts | 270° |
| 2026-05-04 00:36 | 26.07496 | -80.16346 | 15 ft | 8 kts | 270° |
| 2026-05-04 00:36 | 26.07497 | -80.16366 | 15 ft | 0 kts | 270° |
| 2026-05-04 00:38 | 26.07497 | -80.16380 | 15 ft | 4 kts | 270° |
| 2026-05-04 00:38 | 26.07497 | -80.16385 | 15 ft | 0 kts | 270° |
| 2026-05-04 00:39 | 26.07497 | -80.16396 | 15 ft | 4 kts | 270° |
| 2026-05-04 00:39 | 26.07497 | -80.16427 | 15 ft | 0 kts | 270° |
| 2026-05-04 00:40 | 26.07497 | -80.16433 | 15 ft | 2 kts | 270° |
| 2026-05-04 00:40 | 26.07497 | -80.16456 | 15 ft | 0 kts | 270° |
| 2026-05-04 00:41 | 26.07497 | -80.16469 | 15 ft | 4 kts | 270° |
| 2026-05-04 00:42 | 26.07497 | -80.16505 | 15 ft | 0 kts | 270° |
| 2026-05-04 00:42 | 26.07497 | -80.16509 | 15 ft | 1 kts | 270° |
| 2026-05-04 00:42 | 26.07497 | -80.16513 | 15 ft | 1 kts | 270° |
| 2026-05-04 00:42 | 26.07497 | -80.16517 | 15 ft | 1 kts | 271° |
| 2026-05-04 00:43 | 26.07497 | -80.16521 | 15 ft | 0 kts | 271° |
| 2026-05-04 00:43 | 26.07497 | -80.16525 | 15 ft | 1 kts | 271° |
| 2026-05-04 00:43 | 26.07497 | -80.16535 | 15 ft | 3 kts | 271° |
| 2026-05-04 00:43 | 26.07498 | -80.16569 | 15 ft | 4 kts | 270° |
| 2026-05-04 00:44 | 26.07498 | -80.16577 | 15 ft | 0 kts | 270° |
| 2026-05-04 00:45 | 26.07502 | -80.16613 | 15 ft | 10 kts | 289° |
| 2026-05-04 00:46 | 26.07563 | -80.16642 | 15 ft | 10 kts | 357° |
| 2026-05-04 00:46 | 26.07584 | -80.16642 | 15 ft | 0 kts | 360° |
| 2026-05-04 00:46 | 26.07585 | -80.16642 | 15 ft | 2 kts | 360° |
| 2026-05-04 00:46 | 26.07636 | -80.16642 | 16 ft | 11 kts | 1° |
| 2026-05-04 00:47 | 26.07693 | -80.16594 | 17 ft | 11 kts | 75° |
| 2026-05-04 00:47 | 26.07694 | -80.16563 | 17 ft | 0 kts | 91° |
| 2026-05-04 00:47 | 26.07694 | -80.16540 | 19 ft | 22 kts | 90° |
| 2026-05-04 00:47 | 26.07694 | -80.16023 | 18 ft | 109 kts | 90° |
| 2026-05-04 00:48 | 26.07690 | -80.14889 | 26 ft | 180 kts | 88° |
| 2026-05-04 00:48 | 26.07648 | -80.13437 | 787 ft | 196 kts | 91° |
| 2026-05-04 00:48 | 26.07622 | -80.11828 | 1522 ft | 216 kts | 89° |
| 2026-05-04 00:48 | 26.07812 | -80.10050 | 1825 ft | 249 kts | 71° |
| 2026-05-04 00:49 | 26.08788 | -80.08422 | 2350 ft | 261 kts | 45° |
| 2026-05-04 00:49 | 26.10068 | -80.06928 | 3287 ft | 269 kts | 46° |
| 2026-05-04 00:49 | 26.11584 | -80.05727 | 4264 ft | 272 kts | 17° |
| 2026-05-04 00:49 | 26.13415 | -80.05126 | 5266 ft | 277 kts | 14° |
| 2026-05-04 00:50 | 26.15310 | -80.04666 | 6173 ft | 281 kts | 355° |
| 2026-05-04 00:50 | 26.17183 | -80.05167 | 7129 ft | 276 kts | 335° |
| 2026-05-04 00:50 | 26.18988 | -80.05909 | 8114 ft | 279 kts | 336° |
| 2026-05-04 00:50 | 26.20203 | -80.06396 | 8724 ft | 282 kts | 336° |
| 2026-05-04 00:51 | 26.21920 | -80.07409 | 9619 ft | 279 kts | 313° |
| 2026-05-04 00:51 | 26.23077 | -80.09106 | 10502 ft | 277 kts | 294° |
| 2026-05-04 00:51 | 26.23884 | -80.11150 | 10798 ft | 302 kts | 288° |
| 2026-05-04 00:51 | 26.24651 | -80.13427 | 11084 ft | 324 kts | 288° |
| 2026-05-04 00:52 | 26.25464 | -80.15813 | 11750 ft | 333 kts | 290° |
| 2026-05-04 00:52 | 26.26533 | -80.18131 | 12591 ft | 339 kts | 298° |
| 2026-05-04 00:52 | 26.27797 | -80.20356 | 13462 ft | 342 kts | 300° |
| 2026-05-04 00:52 | 26.29114 | -80.22573 | 14236 ft | 345 kts | 300° |
| 2026-05-04 00:53 | 26.30446 | -80.24817 | 14948 ft | 348 kts | 299° |
| 2026-05-04 00:53 | 26.31777 | -80.27090 | 15663 ft | 351 kts | 298° |
| 2026-05-04 00:53 | 26.33106 | -80.29388 | 16368 ft | 354 kts | 298° |
| 2026-05-04 00:53 | 26.34437 | -80.31712 | 17058 ft | 357 kts | 297° |
| 2026-05-04 00:54 | 26.35774 | -80.34061 | 17716 ft | 361 kts | 297° |
| 2026-05-04 00:54 | 26.37120 | -80.36434 | 18357 ft | 364 kts | 297° |
| 2026-05-04 00:54 | 26.38479 | -80.38834 | 18929 ft | 366 kts | 297° |
| 2026-05-04 00:54 | 26.39843 | -80.41243 | 19510 ft | 368 kts | 297° |
| 2026-05-04 00:55 | 26.41211 | -80.43662 | 20071 ft | 370 kts | 296° |
| 2026-05-04 00:55 | 26.42590 | -80.46101 | 20596 ft | 373 kts | 296° |
| 2026-05-04 00:55 | 26.43979 | -80.48560 | 21119 ft | 375 kts | 296° |
| 2026-05-04 00:55 | 26.45375 | -80.51032 | 21640 ft | 378 kts | 296° |
| 2026-05-04 00:56 | 26.46783 | -80.53513 | 22146 ft | 381 kts | 298° |
| 2026-05-04 00:56 | 26.48618 | -80.55722 | 22596 ft | 399 kts | 315° |
| 2026-05-04 00:56 | 26.51037 | -80.57333 | 23065 ft | 416 kts | 330° |
| 2026-05-04 00:56 | 26.53794 | -80.58336 | 23506 ft | 425 kts | 335° |
| 2026-05-04 00:57 | 26.56659 | -80.59225 | 23895 ft | 430 kts | 336° |
| 2026-05-04 00:57 | 26.59592 | -80.60102 | 24251 ft | 432 kts | 336° |
| 2026-05-04 00:57 | 26.62462 | -80.60967 | 24620 ft | 433 kts | 335° |
| 2026-05-04 00:57 | 26.65373 | -80.61861 | 24986 ft | 435 kts | 335° |
| 2026-05-04 00:58 | 26.68328 | -80.62784 | 25323 ft | 437 kts | 335° |
| 2026-05-04 00:58 | 26.71222 | -80.63699 | 25641 ft | 438 kts | 335° |
| 2026-05-04 00:58 | 26.74158 | -80.64634 | 25962 ft | 440 kts | 335° |
| 2026-05-04 00:58 | 26.77113 | -80.65576 | 26273 ft | 442 kts | 335° |
| 2026-05-04 00:59 | 26.80075 | -80.66521 | 26580 ft | 444 kts | 335° |
| 2026-05-04 00:59 | 26.83057 | -80.67473 | 26874 ft | 446 kts | 335° |
| 2026-05-04 00:59 | 26.86044 | -80.68425 | 27176 ft | 448 kts | 335° |
| 2026-05-04 00:59 | 26.89048 | -80.69384 | 27497 ft | 450 kts | 334° |
| 2026-05-04 01:00 | 26.92060 | -80.70350 | 27756 ft | 451 kts | 334° |
| 2026-05-04 01:00 | 26.95047 | -80.71410 | 28029 ft | 450 kts | 332° |
| 2026-05-04 01:00 | 26.98011 | -80.72543 | 28303 ft | 450 kts | 331° |
| 2026-05-04 01:00 | 27.00978 | -80.73703 | 28576 ft | 451 kts | 331° |
| 2026-05-04 01:01 | 27.03948 | -80.74861 | 28822 ft | 453 kts | 331° |
| 2026-05-04 01:01 | 27.06931 | -80.76013 | 29064 ft | 455 kts | 332° |
| 2026-05-04 01:01 | 27.09935 | -80.77162 | 29304 ft | 457 kts | 332° |
| 2026-05-04 01:01 | 27.12949 | -80.78306 | 29537 ft | 458 kts | 332° |
| 2026-05-04 01:02 | 27.15969 | -80.79450 | 29769 ft | 459 kts | 332° |
| 2026-05-04 01:02 | 27.19002 | -80.80598 | 30025 ft | 461 kts | 332° |
| 2026-05-04 01:02 | 27.22050 | -80.81754 | 30196 ft | 463 kts | 332° |
| 2026-05-04 01:02 | 27.25106 | -80.82914 | 30352 ft | 465 kts | 332° |
| 2026-05-04 01:03 | 27.28172 | -80.84079 | 30501 ft | 466 kts | 332° |
| 2026-05-04 01:03 | 27.31247 | -80.85248 | 30638 ft | 467 kts | 332° |
| 2026-05-04 01:03 | 27.34328 | -80.86443 | 30777 ft | 468 kts | 330° |
| 2026-05-04 01:03 | 27.37389 | -80.87687 | 30899 ft | 469 kts | 330° |
| 2026-05-04 01:04 | 27.40454 | -80.88959 | 31048 ft | 470 kts | 329° |
| 2026-05-04 01:04 | 27.43521 | -80.90240 | 31196 ft | 471 kts | 329° |
| 2026-05-04 01:04 | 27.46607 | -80.91527 | 31359 ft | 472 kts | 329° |
| 2026-05-04 01:04 | 27.49685 | -80.92804 | 31557 ft | 472 kts | 329° |
| 2026-05-04 01:05 | 27.52766 | -80.94079 | 31668 ft | 473 kts | 329° |
| 2026-05-04 01:05 | 27.58971 | -80.96644 | 31849 ft | 476 kts | 329° |
| 2026-05-04 01:05 | 27.62083 | -80.97929 | 31950 ft | 477 kts | 329° |
| 2026-05-04 01:06 | 27.65207 | -80.99220 | 32037 ft | 478 kts | 329° |
| 2026-05-04 01:06 | 27.68329 | -81.00511 | 32151 ft | 478 kts | 329° |
| 2026-05-04 01:06 | 27.71453 | -81.01803 | 32293 ft | 478 kts | 329° |
| 2026-05-04 01:06 | 27.74578 | -81.03097 | 32415 ft | 478 kts | 329° |
| 2026-05-04 01:07 | 27.77699 | -81.04390 | 32547 ft | 478 kts | 329° |
| 2026-05-04 01:07 | 27.80824 | -81.05685 | 32719 ft | 477 kts | 328° |
| 2026-05-04 01:07 | 27.83932 | -81.06974 | 32890 ft | 476 kts | 328° |
| 2026-05-04 01:08 | 27.90154 | -81.09561 | 33063 ft | 477 kts | 328° |
| 2026-05-04 01:08 | 27.93272 | -81.10859 | 33180 ft | 477 kts | 328° |
| 2026-05-04 01:08 | 27.96350 | -81.12139 | 33326 ft | 477 kts | 328° |
| 2026-05-04 01:08 | 27.99498 | -81.13449 | 33448 ft | 477 kts | 328° |
| 2026-05-04 01:09 | 28.02574 | -81.14730 | 33546 ft | 477 kts | 328° |
| 2026-05-04 01:09 | 28.08686 | -81.17601 | 33829 ft | 469 kts | 323° |
| 2026-05-04 01:09 | 28.11610 | -81.19144 | 33935 ft | 468 kts | 322° |
| 2026-05-04 01:10 | 28.14598 | -81.20737 | 34037 ft | 469 kts | 322° |
| 2026-05-04 01:10 | 28.17517 | -81.22279 | 34149 ft | 469 kts | 322° |
| 2026-05-04 01:10 | 28.20484 | -81.23826 | 34267 ft | 469 kts | 322° |
| 2026-05-04 01:10 | 28.23447 | -81.25357 | 34385 ft | 468 kts | 322° |
| 2026-05-04 01:11 | 28.26410 | -81.26882 | 34483 ft | 468 kts | 322° |
| 2026-05-04 01:11 | 28.29381 | -81.28412 | 34590 ft | 468 kts | 322° |
| 2026-05-04 01:11 | 28.32324 | -81.29926 | 34809 ft | 463 kts | 322° |
| 2026-05-04 01:11 | 28.35254 | -81.31436 | 34977 ft | 462 kts | 322° |
| 2026-05-04 01:12 | 28.38191 | -81.32942 | 35027 ft | 463 kts | 322° |
| 2026-05-04 01:12 | 28.44069 | -81.35941 | 35222 ft | 463 kts | 322° |
| 2026-05-04 01:12 | 28.47014 | -81.37440 | 35327 ft | 462 kts | 322° |
| 2026-05-04 01:13 | 28.49981 | -81.38953 | 35429 ft | 461 kts | 322° |
| 2026-05-04 01:13 | 28.55798 | -81.41928 | 35562 ft | 461 kts | 322° |
| 2026-05-04 01:13 | 28.58725 | -81.43427 | 35670 ft | 461 kts | 322° |
| 2026-05-04 01:14 | 28.61644 | -81.44923 | 35753 ft | 460 kts | 322° |
| 2026-05-04 01:14 | 28.67482 | -81.47919 | 35872 ft | 460 kts | 322° |
| 2026-05-04 01:14 | 28.70396 | -81.49416 | 36031 ft | 460 kts | 321° |
| 2026-05-04 01:15 | 28.73314 | -81.50915 | 36085 ft | 460 kts | 321° |
| 2026-05-04 01:15 | 28.79156 | -81.53921 | 36090 ft | 461 kts | 321° |
| 2026-05-04 01:16 | 28.84996 | -81.56926 | 36083 ft | 460 kts | 321° |
| 2026-05-04 01:16 | 28.90847 | -81.59893 | 36079 ft | 466 kts | 326° |
| 2026-05-04 01:16 | 28.94010 | -81.60981 | 36084 ft | 483 kts | 334° |
| 2026-05-04 01:17 | 28.97394 | -81.61529 | 36087 ft | 498 kts | 341° |
| 2026-05-04 01:17 | 29.04331 | -81.62099 | 36095 ft | 502 kts | 343° |
| 2026-05-04 01:18 | 29.11282 | -81.62630 | 36098 ft | 500 kts | 343° |
| 2026-05-04 01:18 | 29.18176 | -81.63228 | 36095 ft | 499 kts | 342° |
| 2026-05-04 01:19 | 29.25088 | -81.63866 | 36100 ft | 498 kts | 342° |
| 2026-05-04 01:19 | 29.32041 | -81.64513 | 36115 ft | 498 kts | 343° |
| 2026-05-04 01:20 | 29.38898 | -81.65147 | 36108 ft | 497 kts | 343° |
| 2026-05-04 01:20 | 29.45782 | -81.65784 | 36134 ft | 495 kts | 343° |
| 2026-05-04 01:21 | 29.52650 | -81.66420 | 36113 ft | 494 kts | 343° |
| 2026-05-04 01:21 | 29.59487 | -81.67051 | 36153 ft | 493 kts | 343° |
| 2026-05-04 01:22 | 29.66313 | -81.67685 | 36128 ft | 491 kts | 343° |
| 2026-05-04 01:22 | 29.73112 | -81.68314 | 36108 ft | 490 kts | 343° |
| 2026-05-04 01:23 | 29.79900 | -81.68939 | 36117 ft | 489 kts | 343° |
| 2026-05-04 01:23 | 29.86685 | -81.69564 | 36163 ft | 488 kts | 344° |
| 2026-05-04 01:24 | 29.93460 | -81.70191 | 36125 ft | 488 kts | 344° |
| 2026-05-04 01:24 | 30.00217 | -81.70815 | 36117 ft | 488 kts | 344° |
| 2026-05-04 01:25 | 30.06975 | -81.71442 | 36127 ft | 487 kts | 344° |
| 2026-05-04 01:25 | 30.13730 | -81.72069 | 36128 ft | 487 kts | 344° |
| 2026-05-04 01:26 | 30.20488 | -81.72698 | 36124 ft | 487 kts | 344° |
| 2026-05-04 01:26 | 30.27194 | -81.73321 | 36144 ft | 487 kts | 344° |
| 2026-05-04 01:27 | 30.33940 | -81.73948 | 36150 ft | 486 kts | 344° |
| 2026-05-04 01:27 | 30.40678 | -81.74577 | 36123 ft | 486 kts | 344° |
| 2026-05-04 01:28 | 30.47422 | -81.75207 | 36120 ft | 486 kts | 344° |
| 2026-05-04 01:28 | 30.54159 | -81.75837 | 36121 ft | 486 kts | 344° |
| 2026-05-04 01:29 | 30.60849 | -81.76629 | 36112 ft | 475 kts | 337° |
| 2026-05-04 01:29 | 30.63988 | -81.77613 | 36131 ft | 462 kts | 329° |
| 2026-05-04 01:29 | 30.66885 | -81.79089 | 36132 ft | 449 kts | 322° |
| 2026-05-04 01:30 | 30.72452 | -81.82382 | 36167 ft | 450 kts | 322° |
| 2026-05-04 01:30 | 30.78042 | -81.85683 | 36168 ft | 451 kts | 322° |
| 2026-05-04 01:31 | 30.83662 | -81.88963 | 36134 ft | 452 kts | 322° |
| 2026-05-04 01:31 | 30.89287 | -81.92232 | 36129 ft | 452 kts | 322° |
| 2026-05-04 01:32 | 30.94910 | -81.95497 | 36121 ft | 452 kts | 322° |
| 2026-05-04 01:32 | 31.00535 | -81.98769 | 36181 ft | 452 kts | 322° |
| 2026-05-04 01:33 | 31.06173 | -82.02056 | 36135 ft | 453 kts | 322° |
| 2026-05-04 01:33 | 31.11804 | -82.05343 | 36126 ft | 453 kts | 322° |
| 2026-05-04 01:34 | 31.17433 | -82.08634 | 36119 ft | 452 kts | 322° |
| 2026-05-04 01:34 | 31.23063 | -82.11929 | 36135 ft | 452 kts | 322° |
| 2026-05-04 01:35 | 31.28690 | -82.15225 | 36176 ft | 453 kts | 323° |
| 2026-05-04 01:35 | 31.34332 | -82.18536 | 36139 ft | 454 kts | 323° |
| 2026-05-04 01:36 | 31.39978 | -82.21854 | 36128 ft | 455 kts | 323° |
| 2026-05-04 01:36 | 31.45598 | -82.25160 | 36122 ft | 455 kts | 323° |
| 2026-05-04 01:37 | 31.51254 | -82.28493 | 36118 ft | 455 kts | 323° |
| 2026-05-04 01:37 | 31.56907 | -82.31827 | 36143 ft | 455 kts | 323° |
| 2026-05-04 01:38 | 31.62574 | -82.35177 | 36123 ft | 456 kts | 323° |
| 2026-05-04 01:38 | 31.67291 | -82.37968 | 36106 ft | 457 kts | 323° |
| 2026-05-04 01:39 | 31.73005 | -82.41353 | 36106 ft | 458 kts | 324° |
| 2026-05-04 01:39 | 31.78659 | -82.44705 | 36104 ft | 457 kts | 324° |
| 2026-05-04 01:39 | 31.81495 | -82.46381 | 36088 ft | 443 kts | 323° |
| 2026-05-04 01:40 | 31.84172 | -82.47961 | 36022 ft | 430 kts | 323° |
| 2026-05-04 01:40 | 31.86855 | -82.49554 | 35732 ft | 423 kts | 323° |
| 2026-05-04 01:40 | 31.89430 | -82.51093 | 35376 ft | 419 kts | 323° |
| 2026-05-04 01:40 | 31.92020 | -82.52643 | 35006 ft | 416 kts | 323° |
| 2026-05-04 01:41 | 31.94623 | -82.54196 | 34624 ft | 413 kts | 323° |
| 2026-05-04 01:41 | 31.97148 | -82.55703 | 34195 ft | 412 kts | 323° |
| 2026-05-04 01:41 | 31.99722 | -82.57250 | 33475 ft | 416 kts | 323° |
| 2026-05-04 01:41 | 32.02079 | -82.59074 | 33155 ft | 395 kts | 310° |
| 2026-05-04 01:42 | 32.04097 | -82.61204 | 32903 ft | 385 kts | 308° |
| 2026-05-04 01:42 | 32.06029 | -82.63356 | 32606 ft | 379 kts | 307° |
| 2026-05-04 01:42 | 32.07932 | -82.65486 | 32232 ft | 376 kts | 308° |
| 2026-05-04 01:42 | 32.09832 | -82.67589 | 31882 ft | 374 kts | 308° |
| 2026-05-04 01:43 | 32.11734 | -82.69664 | 31526 ft | 371 kts | 308° |
| 2026-05-04 01:43 | 32.13635 | -82.71717 | 31172 ft | 369 kts | 309° |
| 2026-05-04 01:43 | 32.15530 | -82.73752 | 30843 ft | 367 kts | 309° |
| 2026-05-04 01:43 | 32.17420 | -82.75776 | 30485 ft | 366 kts | 309° |
| 2026-05-04 01:44 | 32.19304 | -82.77790 | 30127 ft | 364 kts | 310° |
| 2026-05-04 01:44 | 32.21175 | -82.79790 | 29724 ft | 362 kts | 310° |
| 2026-05-04 01:44 | 32.23036 | -82.81781 | 29318 ft | 359 kts | 310° |
| 2026-05-04 01:44 | 32.24876 | -82.83751 | 28940 ft | 356 kts | 310° |
| 2026-05-04 01:45 | 32.26702 | -82.85706 | 28581 ft | 353 kts | 310° |
| 2026-05-04 01:45 | 32.28514 | -82.87647 | 28209 ft | 350 kts | 311° |
| 2026-05-04 01:45 | 32.32084 | -82.91477 | 27515 ft | 344 kts | 311° |
| 2026-05-04 01:46 | 32.33851 | -82.93375 | 27164 ft | 341 kts | 311° |
| 2026-05-04 01:46 | 32.35599 | -82.95253 | 26810 ft | 339 kts | 311° |
| 2026-05-04 01:46 | 32.37341 | -82.97124 | 26469 ft | 337 kts | 311° |
| 2026-05-04 01:46 | 32.39080 | -82.98972 | 26033 ft | 338 kts | 313° |
| 2026-05-04 01:47 | 32.40851 | -83.00801 | 25667 ft | 337 kts | 313° |
| 2026-05-04 01:47 | 32.42626 | -83.02615 | 25308 ft | 336 kts | 313° |
| 2026-05-04 01:47 | 32.44387 | -83.04418 | 24962 ft | 335 kts | 315° |
| 2026-05-04 01:47 | 32.46140 | -83.06214 | 24625 ft | 333 kts | 315° |
| 2026-05-04 01:48 | 32.47885 | -83.08007 | 24289 ft | 331 kts | 315° |
| 2026-05-04 01:48 | 32.49618 | -83.09792 | 23958 ft | 330 kts | 315° |
| 2026-05-04 01:48 | 32.51347 | -83.11576 | 23614 ft | 328 kts | 315° |
| 2026-05-04 01:48 | 32.53061 | -83.13345 | 23228 ft | 327 kts | 315° |
| 2026-05-04 01:49 | 32.54770 | -83.15110 | 22872 ft | 324 kts | 315° |
| 2026-05-04 01:49 | 32.56463 | -83.16861 | 22542 ft | 322 kts | 316° |
| 2026-05-04 01:49 | 32.58151 | -83.18604 | 22070 ft | 324 kts | 316° |
| 2026-05-04 01:49 | 32.59838 | -83.20349 | 21846 ft | 320 kts | 316° |
| 2026-05-04 01:50 | 32.61515 | -83.22086 | 21575 ft | 321 kts | 316° |
| 2026-05-04 01:50 | 32.63203 | -83.23839 | 21329 ft | 325 kts | 316° |
| 2026-05-04 01:50 | 32.64910 | -83.25611 | 21085 ft | 326 kts | 316° |
| 2026-05-04 01:50 | 32.66638 | -83.27408 | 20807 ft | 336 kts | 316° |
| 2026-05-04 01:51 | 32.68440 | -83.29285 | 20485 ft | 356 kts | 316° |
| 2026-05-04 01:51 | 32.70325 | -83.31247 | 20097 ft | 362 kts | 316° |
| 2026-05-04 01:51 | 32.72223 | -83.33221 | 19717 ft | 366 kts | 316° |
| 2026-05-04 01:51 | 32.74152 | -83.35228 | 19328 ft | 370 kts | 316° |
| 2026-05-04 01:52 | 32.76064 | -83.37217 | 18943 ft | 369 kts | 316° |
| 2026-05-04 01:52 | 32.78006 | -83.39239 | 18552 ft | 366 kts | 316° |
| 2026-05-04 01:52 | 32.79921 | -83.41235 | 18029 ft | 367 kts | 316° |
| 2026-05-04 01:52 | 32.81829 | -83.43227 | 17605 ft | 362 kts | 316° |
| 2026-05-04 01:53 | 32.83686 | -83.45165 | 17218 ft | 357 kts | 316° |
| 2026-05-04 01:53 | 32.85540 | -83.47101 | 16828 ft | 353 kts | 316° |
| 2026-05-04 01:53 | 32.87380 | -83.49024 | 16462 ft | 350 kts | 317° |
| 2026-05-04 01:53 | 32.89204 | -83.50933 | 16092 ft | 347 kts | 317° |
| 2026-05-04 01:54 | 32.91011 | -83.52826 | 15726 ft | 345 kts | 317° |
| 2026-05-04 01:54 | 32.92806 | -83.54705 | 15366 ft | 343 kts | 317° |
| 2026-05-04 01:54 | 32.94590 | -83.56575 | 15011 ft | 341 kts | 317° |
| 2026-05-04 01:54 | 32.96373 | -83.58442 | 14652 ft | 340 kts | 317° |
| 2026-05-04 01:55 | 32.98147 | -83.60300 | 14298 ft | 339 kts | 317° |
| 2026-05-04 01:55 | 32.99921 | -83.62157 | 13949 ft | 339 kts | 317° |
| 2026-05-04 01:55 | 33.01685 | -83.64007 | 13548 ft | 336 kts | 318° |
| 2026-05-04 01:55 | 33.03432 | -83.65838 | 13161 ft | 332 kts | 318° |
| 2026-05-04 01:56 | 33.05155 | -83.67646 | 12794 ft | 328 kts | 318° |
| 2026-05-04 01:56 | 33.06856 | -83.69432 | 12442 ft | 324 kts | 318° |
| 2026-05-04 01:56 | 33.08533 | -83.71195 | 12097 ft | 320 kts | 318° |
| 2026-05-04 01:56 | 33.10195 | -83.72942 | 11738 ft | 317 kts | 318° |
| 2026-05-04 01:57 | 33.11839 | -83.74670 | 11420 ft | 313 kts | 318° |
| 2026-05-04 01:57 | 33.13462 | -83.76379 | 11093 ft | 310 kts | 318° |
| 2026-05-04 01:57 | 33.15072 | -83.78076 | 10786 ft | 306 kts | 318° |
| 2026-05-04 01:57 | 33.16658 | -83.79751 | 10493 ft | 303 kts | 319° |
| 2026-05-04 01:58 | 33.18225 | -83.81408 | 10207 ft | 299 kts | 319° |
| 2026-05-04 01:58 | 33.19754 | -83.83064 | 9922 ft | 295 kts | 316° |
| 2026-05-04 01:58 | 33.21175 | -83.84748 | 9938 ft | 281 kts | 315° |
| 2026-05-04 01:58 | 33.22521 | -83.86375 | 9894 ft | 269 kts | 315° |
| 2026-05-04 01:59 | 33.23809 | -83.87928 | 9675 ft | 265 kts | 315° |
| 2026-05-04 01:59 | 33.25125 | -83.89507 | 9360 ft | 265 kts | 315° |
| 2026-05-04 01:59 | 33.26425 | -83.91060 | 9037 ft | 264 kts | 315° |
| 2026-05-04 01:59 | 33.27712 | -83.92596 | 8714 ft | 264 kts | 315° |
| 2026-05-04 02:00 | 33.29013 | -83.94147 | 8408 ft | 264 kts | 315° |
| 2026-05-04 02:00 | 33.30310 | -83.95696 | 8126 ft | 263 kts | 315° |
| 2026-05-04 02:00 | 33.31598 | -83.97238 | 7927 ft | 259 kts | 315° |
| 2026-05-04 02:00 | 33.32861 | -83.98750 | 7874 ft | 256 kts | 315° |
| 2026-05-04 02:01 | 33.34124 | -84.00244 | 7799 ft | 257 kts | 319° |
| 2026-05-04 02:01 | 33.35720 | -84.01126 | 7748 ft | 258 kts | 355° |
| 2026-05-04 02:01 | 33.37535 | -84.01075 | 7747 ft | 264 kts | 2° |
| 2026-05-04 02:01 | 33.39382 | -84.00968 | 7676 ft | 266 kts | 2° |
| 2026-05-04 02:02 | 33.41225 | -84.00871 | 7595 ft | 264 kts | 1° |
| 2026-05-04 02:02 | 33.43056 | -84.00788 | 7534 ft | 262 kts | 1° |
| 2026-05-04 02:02 | 33.44869 | -84.00715 | 7487 ft | 260 kts | 1° |
| 2026-05-04 02:02 | 33.46679 | -84.00904 | 7174 ft | 267 kts | 345° |
| 2026-05-04 02:03 | 33.48459 | -84.01559 | 6924 ft | 266 kts | 341° |
| 2026-05-04 02:03 | 33.50198 | -84.02262 | 6739 ft | 261 kts | 341° |
| 2026-05-04 02:03 | 33.51915 | -84.02939 | 6595 ft | 256 kts | 342° |
| 2026-05-04 02:03 | 33.53603 | -84.03578 | 6527 ft | 255 kts | 342° |
| 2026-05-04 02:04 | 33.55300 | -84.04202 | 6443 ft | 256 kts | 342° |
| 2026-05-04 02:04 | 33.57020 | -84.04822 | 6345 ft | 260 kts | 343° |
| 2026-05-04 02:04 | 33.58767 | -84.05447 | 6239 ft | 262 kts | 343° |
| 2026-05-04 02:04 | 33.60514 | -84.06071 | 6125 ft | 262 kts | 341° |
| 2026-05-04 02:05 | 33.62057 | -84.07164 | 5981 ft | 260 kts | 310° |
| 2026-05-04 02:05 | 33.62843 | -84.09084 | 5697 ft | 266 kts | 281° |
| 2026-05-04 02:05 | 33.63101 | -84.11271 | 5395 ft | 264 kts | 276° |
| 2026-05-04 02:05 | 33.63224 | -84.13485 | 5038 ft | 262 kts | 271° |
| 2026-05-04 02:06 | 33.63237 | -84.15649 | 4738 ft | 257 kts | 269° |
| 2026-05-04 02:06 | 33.63225 | -84.17751 | 4464 ft | 252 kts | 269° |
| 2026-05-04 02:06 | 33.63215 | -84.19852 | 4175 ft | 245 kts | 269° |
| 2026-05-04 02:06 | 33.63209 | -84.21833 | 3959 ft | 235 kts | 270° |
| 2026-05-04 02:07 | 33.63205 | -84.23731 | 3858 ft | 215 kts | 270° |
| 2026-05-04 02:07 | 33.63205 | -84.25433 | 3677 ft | 194 kts | 270° |
| 2026-05-04 02:07 | 33.63199 | -84.26992 | 3444 ft | 182 kts | 270° |
| 2026-05-04 02:07 | 33.63196 | -84.28449 | 3242 ft | 162 kts | 270° |
| 2026-05-04 02:08 | 33.63181 | -84.29730 | 2967 ft | 150 kts | 265° |
| 2026-05-04 02:08 | 33.62974 | -84.30913 | 2787 ft | 142 kts | 255° |
| 2026-05-04 02:08 | 33.62690 | -84.32030 | 2983 ft | 146 kts | 255° |
| 2026-05-04 02:08 | 33.62404 | -84.33218 | 2902 ft | 150 kts | 256° |
| 2026-05-04 02:09 | 33.62170 | -84.34431 | 2677 ft | 149 kts | 260° |
| 2026-05-04 02:09 | 33.62047 | -84.35656 | 2403 ft | 147 kts | 268° |
| 2026-05-04 02:09 | 33.62019 | -84.36860 | 2193 ft | 142 kts | 270° |
| 2026-05-04 02:09 | 33.62013 | -84.38060 | 1927 ft | 146 kts | 272° |
| 2026-05-04 02:10 | 33.62025 | -84.39283 | 1581 ft | 147 kts | 271° |
| 2026-05-04 02:10 | 33.62022 | -84.40493 | 1305 ft | 142 kts | 271° |
| 2026-05-04 02:10 | 33.62027 | -84.41635 | 1099 ft | 130 kts | 271° |
| 2026-05-04 02:10 | 33.62033 | -84.42537 | 1036 ft | 65 kts | 270° |
| 2026-05-04 02:11 | 33.62033 | -84.43024 | 1033 ft | 55 kts | 270° |
| 2026-05-04 02:11 | 33.62032 | -84.43457 | 1033 ft | 49 kts | 269° |
| 2026-05-04 02:11 | 33.62100 | -84.43773 | 1035 ft | 29 kts | 299° |
| 2026-05-04 02:11 | 33.62209 | -84.43761 | 1034 ft | 20 kts | 80° |
| 2026-05-04 02:12 | 33.62213 | -84.43599 | 1034 ft | 19 kts | 88° |
| 2026-05-04 02:12 | 33.62220 | -84.43443 | 1034 ft | 19 kts | 68° |
| 2026-05-04 02:12 | 33.62332 | -84.43401 | 1034 ft | 18 kts | 2° |
| 2026-05-04 02:12 | 33.62454 | -84.43397 | 1034 ft | 17 kts | 0° |
| 2026-05-04 02:13 | 33.62572 | -84.43399 | 1034 ft | 17 kts | 358° |
| 2026-05-04 02:13 | 33.62686 | -84.43402 | 1034 ft | 16 kts | 0° |
| 2026-05-04 02:13 | 33.62795 | -84.43399 | 1034 ft | 15 kts | 1° |
| 2026-05-04 02:13 | 33.62900 | -84.43399 | 1034 ft | 15 kts | 359° |
| 2026-05-04 02:14 | 33.63000 | -84.43400 | 1035 ft | 14 kts | 0° |
| 2026-05-04 02:14 | 33.63095 | -84.43422 | 1036 ft | 14 kts | 349° |
| 2026-05-04 02:14 | 33.63186 | -84.43428 | 1035 ft | 13 kts | 0° |
| 2026-05-04 02:14 | 33.63275 | -84.43427 | 1035 ft | 13 kts | 1° |
| 2026-05-04 02:15 | 33.63354 | -84.43456 | 1035 ft | 12 kts | 304° |
| 2026-05-04 02:15 | 33.63363 | -84.43556 | 1034 ft | 12 kts | 275° |
| 2026-05-04 02:15 | 33.63425 | -84.43606 | 1034 ft | 13 kts | 358° |
| 2026-05-04 02:15 | 33.63535 | -84.43609 | 1034 ft | 17 kts | 356° |
| 2026-05-04 02:16 | 33.63588 | -84.43717 | 1035 ft | 17 kts | 291° |
| 2026-05-04 02:16 | 33.63687 | -84.43732 | 1034 ft | 16 kts | 33° |
| 2026-05-04 02:16 | 33.63796 | -84.43722 | 1034 ft | 16 kts | 360° |
| 2026-05-04 02:16 | 33.63898 | -84.43722 | 1034 ft | 9 kts | 0° |
| 2026-05-04 02:17 | 33.63951 | -84.43722 | 1034 ft | 7 kts | 360° |
| 2026-05-04 02:17 | 33.63996 | -84.43705 | 1034 ft | 6 kts | 56° |
| 2026-05-04 02:17 | 33.64000 | -84.43657 | 1034 ft | 6 kts | 88° |
| 2026-05-04 02:17 | 33.64000 | -84.43642 | 1034 ft | 0 kts | 89° |